Stoverstown, Pennsylvania
Current Conditions -  °F | °C
As of 10:53 PM on Friday 24 Oct 2014 (Local Time) from KTHV Reporting Station
Clear Clear  
Wind Chill: 52°   Ceiling: Unl
Heat Index: 52°   Visibility: 10mi
Dew Point: 38°   Wind: 5mph
Humidity: 59%   Direction: 280°W
Pressure: 29.94"   Gusts: NA
Location:  39.853°N, 76.8779°W
Report Text: KTHV 250253Z AUTO 28004KT 10SM CLR 11/03 A2994 RMK AO2 SLP142 T01110033 51009
Loading
Personal Weather Stations






























Interactive Weather Map
Tropical Storm Tracking
New forecast layout! Learn more

10-Day Weather Forecast

Advertisements
Track Severe Weather on mobile